createdAt,value
2017-08-30T00:01:06.686Z,79.60
2017-08-30T00:03:34.245Z,80.30
2017-08-30T00:06:01.809Z,78.80
2017-08-30T00:08:29.398Z,78.10
2017-08-30T00:10:56.966Z,77.10
2017-08-30T00:13:25.294Z,77.80
2017-08-30T00:15:52.922Z,77.70
2017-08-30T00:18:20.483Z,77.80
2017-08-30T00:20:48.057Z,78.80
2017-08-30T00:23:15.643Z,77.40
2017-08-30T00:25:55.006Z,77.40
2017-08-30T00:28:22.611Z,79.20
2017-08-30T00:30:50.180Z,78.30
2017-08-30T00:33:17.744Z,79.40
2017-08-30T00:35:45.339Z,79.80
2017-08-30T00:38:12.923Z,80.20
2017-08-30T00:40:40.489Z,80.80
2017-08-30T00:43:10.012Z,79.80
2017-08-30T00:45:37.581Z,78.60
2017-08-30T00:48:05.181Z,77.70
2017-08-30T00:50:32.771Z,80.00
2017-08-30T00:53:00.333Z,79.70
2017-08-30T00:55:27.926Z,77.40
2017-08-30T00:57:55.534Z,77.70
2017-08-30T01:00:23.117Z,79.60
2017-08-30T01:02:50.663Z,77.60
2017-08-30T01:05:18.279Z,76.90
2017-08-30T01:07:45.842Z,77.30
2017-08-30T01:10:13.387Z,77.30
2017-08-30T01:12:40.988Z,77.70
2017-08-30T01:15:08.539Z,77.40
2017-08-30T01:17:36.083Z,78.10
2017-08-30T01:20:03.687Z,79.60
2017-08-30T01:22:31.265Z,77.30
2017-08-30T01:24:58.844Z,77.90
2017-08-30T01:27:26.438Z,78.10
2017-08-30T01:29:53.997Z,76.90
2017-08-30T01:32:21.549Z,77.70
2017-08-30T01:34:49.151Z,78.10
2017-08-30T01:37:16.722Z,78.20
2017-08-30T01:39:44.294Z,81.20
2017-08-30T01:42:11.882Z,78.60
2017-08-30T01:44:39.449Z,80.00
2017-08-30T01:47:07.022Z,77.60
2017-08-30T01:49:34.619Z,77.10
2017-08-30T01:52:02.191Z,80.40
2017-08-30T01:54:29.766Z,80.40
2017-08-30T01:56:57.362Z,77.90
2017-08-30T01:59:24.926Z,79.70
2017-08-30T02:01:52.505Z,79.40
2017-08-30T02:04:20.089Z,78.90
2017-08-30T02:06:47.663Z,78.30
2017-08-30T02:09:15.216Z,78.30
2017-08-30T02:11:42.818Z,78.80
2017-08-30T02:14:11.145Z,78.50
2017-08-30T02:16:38.710Z,78.60
2017-08-30T02:19:06.292Z,77.80
2017-08-30T02:21:33.854Z,78.60
2017-08-30T02:24:01.431Z,78.30
2017-08-30T02:26:29.036Z,78.30
2017-08-30T02:28:56.606Z,82.00
2017-08-30T02:31:24.164Z,80.00
2017-08-30T02:33:51.758Z,80.20
2017-08-30T02:36:19.323Z,81.10
2017-08-30T02:38:46.871Z,79.80
2017-08-30T02:41:14.466Z,79.60
2017-08-30T02:43:42.025Z,78.50
2017-08-30T02:46:10.368Z,78.70
2017-08-30T02:48:37.957Z,78.30
2017-08-30T02:51:05.509Z,81.30
2017-08-30T02:53:35.993Z,78.80
2017-08-30T02:56:03.628Z,79.10
2017-08-30T02:58:31.275Z,80.30
2017-08-30T03:00:58.903Z,80.10
2017-08-30T03:03:26.542Z,79.70
2017-08-30T03:05:54.156Z,79.80
2017-08-30T03:08:21.778Z,78.90
2017-08-30T03:10:49.401Z,80.20
2017-08-30T03:13:17.070Z,80.10
2017-08-30T03:15:44.685Z,81.00
2017-08-30T03:18:12.289Z,78.60
2017-08-30T03:20:39.935Z,78.30
2017-08-30T03:23:07.540Z,78.90
2017-08-30T03:25:35.176Z,78.70
2017-08-30T03:28:02.789Z,79.80
2017-08-30T03:30:30.433Z,78.80
2017-08-30T03:32:58.056Z,79.20
2017-08-30T03:35:25.711Z,79.00
2017-08-30T03:37:53.328Z,79.70
2017-08-30T03:40:20.959Z,80.70
2017-08-30T03:42:48.595Z,81.70
2017-08-30T03:45:16.196Z,79.80
2017-08-30T03:47:43.839Z,79.00
2017-08-30T03:50:11.473Z,81.30
2017-08-30T03:52:39.115Z,80.00
2017-08-30T03:55:06.719Z,79.20
2017-08-30T03:57:34.360Z,80.00
2017-08-30T04:00:01.951Z,80.10
2017-08-30T04:02:29.561Z,80.20
2017-08-30T04:04:57.210Z,81.60
2017-08-30T04:07:24.824Z,81.70
2017-08-30T04:09:52.466Z,80.50
2017-08-30T04:12:20.090Z,82.00
2017-08-30T04:14:47.736Z,80.10
2017-08-30T04:17:15.367Z,79.80
2017-08-30T04:19:43.019Z,79.60
2017-08-30T04:22:10.655Z,79.80
2017-08-30T04:24:38.330Z,80.30
2017-08-30T04:27:05.959Z,79.50
2017-08-30T04:29:33.595Z,82.00
2017-08-30T04:32:01.230Z,81.90
2017-08-30T04:34:28.846Z,79.80
2017-08-30T04:36:56.491Z,80.30
2017-08-30T04:39:24.107Z,79.90
2017-08-30T04:41:51.741Z,80.20
2017-08-30T04:44:19.371Z,82.40
2017-08-30T04:46:47.039Z,83.40
2017-08-30T04:49:15.172Z,81.30
2017-08-30T04:51:43.841Z,81.00
2017-08-30T04:54:12.124Z,80.00
2017-08-30T04:56:40.323Z,79.80
2017-08-30T04:59:08.020Z,82.80
2017-08-30T05:01:35.893Z,80.70
2017-08-30T05:04:03.571Z,81.20
2017-08-30T05:06:31.516Z,82.60
2017-08-30T05:08:59.191Z,81.30
2017-08-30T05:11:26.824Z,81.80
2017-08-30T05:13:54.486Z,81.50
2017-08-30T05:16:22.559Z,84.20
2017-08-30T05:18:50.675Z,83.00
2017-08-30T05:21:18.993Z,82.00
2017-08-30T05:23:47.213Z,83.10
2017-08-30T05:26:14.898Z,82.40
2017-08-30T05:28:42.527Z,80.50
2017-08-30T05:31:10.194Z,83.50
2017-08-30T05:33:37.827Z,83.10
2017-08-30T05:36:05.465Z,84.70
2017-08-30T05:38:33.093Z,85.30
2017-08-30T05:41:00.698Z,83.80
2017-08-30T05:43:28.341Z,84.50
2017-08-30T05:45:55.952Z,83.30
2017-08-30T05:48:23.602Z,84.00
2017-08-30T05:50:51.239Z,83.40
2017-08-30T05:53:18.901Z,84.90
2017-08-30T05:55:46.535Z,83.60
2017-08-30T05:58:14.198Z,84.70
2017-08-30T06:00:41.829Z,84.40
2017-08-30T06:03:09.479Z,85.40
2017-08-30T06:05:37.088Z,85.60
2017-08-30T06:08:04.699Z,85.20
2017-08-30T06:10:32.348Z,85.50
2017-08-30T06:12:59.950Z,85.30
2017-08-30T06:15:27.593Z,84.80
2017-08-30T06:17:55.215Z,83.90
2017-08-30T06:20:22.843Z,82.20
2017-08-30T06:22:50.466Z,82.50
2017-08-30T06:25:18.120Z,82.10
2017-08-30T06:27:45.734Z,81.50
2017-08-30T06:30:13.361Z,81.20
2017-08-30T06:32:41.010Z,80.50
2017-08-30T06:35:08.624Z,79.90
2017-08-30T06:37:36.268Z,79.10
2017-08-30T06:40:03.898Z,78.70
2017-08-30T06:42:32.309Z,77.40
2017-08-30T06:44:59.938Z,77.40
2017-08-30T06:47:27.580Z,76.20
2017-08-30T06:49:55.176Z,76.10
2017-08-30T06:52:22.822Z,75.20
2017-08-30T06:54:50.432Z,74.90
2017-08-30T06:57:18.042Z,73.60
2017-08-30T06:59:45.701Z,73.80
2017-08-30T07:02:13.314Z,73.40
2017-08-30T07:04:40.935Z,72.30
2017-08-30T07:07:08.534Z,71.40
2017-08-30T07:09:36.174Z,71.10
2017-08-30T07:12:03.790Z,70.20
2017-08-30T07:14:31.444Z,69.80
2017-08-30T07:16:59.097Z,69.30
2017-08-30T07:19:26.731Z,68.20
2017-08-30T07:21:54.359Z,65.70
2017-08-30T07:24:21.958Z,64.20
2017-08-30T07:26:49.593Z,65.20
2017-08-30T07:29:17.183Z,63.30
2017-08-30T07:31:44.803Z,63.00
2017-08-30T07:34:12.451Z,64.20
2017-08-30T07:36:40.086Z,63.30
2017-08-30T07:39:07.688Z,63.60
2017-08-30T07:41:35.348Z,63.50
2017-08-30T07:44:02.987Z,57.30
2017-08-30T07:46:30.587Z,59.70
2017-08-30T07:48:58.245Z,60.60
2017-08-30T07:51:25.866Z,56.40
2017-08-30T07:53:53.487Z,58.20
2017-08-30T07:56:21.097Z,61.40
2017-08-30T07:58:48.787Z,58.40
2017-08-30T08:01:16.409Z,59.10
2017-08-30T08:03:44.046Z,60.80
2017-08-30T08:06:11.656Z,59.90
2017-08-30T08:08:39.268Z,59.80
2017-08-30T08:11:06.887Z,60.90
2017-08-30T08:13:34.519Z,58.80
2017-08-30T08:16:02.143Z,58.20
2017-08-30T08:18:29.747Z,56.10
2017-08-30T08:20:57.372Z,54.60
2017-08-30T08:23:24.999Z,56.20
2017-08-30T08:25:52.640Z,54.60
2017-08-30T08:28:20.256Z,56.10
2017-08-30T08:30:47.887Z,57.80
2017-08-30T08:33:15.502Z,57.30
2017-08-30T08:35:43.132Z,60.30
2017-08-30T08:38:10.762Z,60.30
2017-08-30T08:40:38.364Z,57.80
2017-08-30T08:43:06.005Z,54.60
2017-08-30T08:45:33.617Z,59.10
2017-08-30T08:48:01.255Z,57.10
2017-08-30T08:50:28.894Z,55.80
2017-08-30T08:52:56.518Z,53.70
2017-08-30T08:55:24.896Z,55.10
2017-08-30T08:57:52.509Z,55.10
2017-08-30T09:00:20.140Z,50.90
2017-08-30T09:02:47.749Z,53.50
2017-08-30T09:05:15.366Z,53.70
2017-08-30T09:07:42.963Z,53.80
2017-08-30T09:10:10.617Z,54.40
2017-08-30T09:12:38.234Z,55.90
2017-08-30T09:15:05.904Z,55.50
2017-08-30T09:17:33.517Z,55.10
2017-08-30T09:20:01.174Z,59.50
2017-08-30T09:22:28.799Z,57.20
2017-08-30T09:24:56.395Z,58.30
2017-08-30T09:27:24.015Z,57.50
2017-08-30T09:29:51.611Z,54.20
2017-08-30T09:32:19.238Z,55.50
2017-08-30T09:34:46.846Z,55.50
2017-08-30T09:37:14.470Z,54.20
2017-08-30T09:39:42.078Z,51.70
2017-08-30T09:42:09.721Z,50.20
2017-08-30T09:44:37.354Z,47.80
2017-08-30T09:47:04.973Z,51.30
2017-08-30T09:49:32.592Z,51.90
2017-08-30T09:52:00.218Z,51.50
2017-08-30T09:54:27.868Z,52.40
2017-08-30T09:56:55.490Z,54.20
2017-08-30T09:59:23.133Z,52.50
2017-08-30T10:01:50.727Z,54.80
2017-08-30T10:04:18.357Z,52.10
2017-08-30T10:06:45.970Z,55.00
2017-08-30T10:09:13.603Z,56.90
2017-08-30T10:11:41.222Z,56.60
2017-08-30T10:14:08.840Z,56.60
2017-08-30T10:16:36.481Z,53.20
2017-08-30T10:19:04.098Z,59.90
2017-08-30T10:21:31.776Z,60.40
2017-08-30T10:23:59.395Z,58.10
2017-08-30T10:26:27.019Z,56.60
2017-08-30T10:28:54.629Z,60.10
2017-08-30T10:31:22.259Z,57.60
2017-08-30T10:33:49.879Z,55.90
2017-08-30T10:36:17.499Z,58.10
2017-08-30T10:38:45.120Z,50.80
2017-08-30T10:41:12.760Z,55.60
2017-08-30T10:43:40.421Z,54.10
2017-08-30T10:46:08.039Z,54.60
2017-08-30T10:48:35.677Z,50.70
2017-08-30T10:51:03.289Z,49.50
2017-08-30T10:53:30.907Z,51.10
2017-08-30T10:55:58.535Z,48.20
2017-08-30T10:58:26.173Z,49.40
2017-08-30T11:00:53.792Z,53.00
2017-08-30T11:03:21.388Z,52.80
2017-08-30T11:05:49.020Z,51.20
2017-08-30T11:08:16.629Z,50.50
2017-08-30T11:10:44.261Z,46.60
2017-08-30T11:13:12.652Z,46.50
2017-08-30T11:15:40.277Z,46.50
2017-08-30T11:18:07.875Z,40.40
2017-08-30T11:20:35.515Z,39.60
2017-08-30T11:23:03.135Z,37.90
2017-08-30T11:25:30.745Z,37.40
2017-08-30T11:27:58.373Z,38.70
2017-08-30T11:30:25.981Z,41.30
2017-08-30T11:32:53.604Z,45.90
2017-08-30T11:35:21.203Z,46.00
2017-08-30T11:37:48.832Z,44.50
2017-08-30T11:40:16.423Z,46.40
2017-08-30T11:42:44.073Z,43.00
2017-08-30T11:45:12.453Z,43.00
2017-08-30T11:47:40.092Z,43.00
2017-08-30T11:50:07.704Z,43.00
2017-08-30T11:52:35.308Z,43.70
2017-08-30T11:55:02.963Z,40.10
2017-08-30T11:57:30.574Z,41.90
2017-08-30T11:59:58.211Z,45.10
2017-08-30T12:02:25.806Z,44.50
2017-08-30T12:04:53.450Z,43.80
2017-08-30T12:07:21.075Z,42.40
2017-08-30T12:09:48.716Z,39.20
2017-08-30T12:12:16.325Z,42.70
2017-08-30T12:14:44.715Z,39.40
2017-08-30T12:17:12.364Z,39.40
2017-08-30T12:19:39.992Z,42.30
2017-08-30T12:22:07.611Z,40.90
2017-08-30T12:24:35.204Z,38.60
2017-08-30T12:27:02.842Z,38.70
2017-08-30T12:29:30.460Z,42.90
2017-08-30T12:31:58.106Z,40.60
2017-08-30T12:34:25.732Z,38.90
2017-08-30T12:36:58.973Z,40.10
2017-08-30T12:39:33.101Z,38.30
2017-08-30T12:42:00.749Z,38.30
2017-08-30T12:44:28.346Z,37.50
2017-08-30T12:46:55.960Z,35.90
2017-08-30T12:49:23.599Z,42.40
2017-08-30T12:51:51.227Z,38.10
2017-08-30T12:54:18.857Z,36.60
2017-08-30T12:56:46.455Z,34.80
2017-08-30T12:59:14.093Z,39.80
2017-08-30T13:01:41.705Z,38.60
2017-08-30T13:04:09.332Z,39.30
2017-08-30T13:06:36.950Z,40.30
2017-08-30T13:09:04.586Z,37.20
2017-08-30T13:11:32.221Z,40.90
2017-08-30T13:13:59.840Z,40.90
2017-08-30T13:16:27.459Z,36.70
2017-08-30T13:18:55.059Z,38.00
2017-08-30T13:21:22.703Z,38.10
2017-08-30T13:23:50.311Z,39.00
2017-08-30T13:26:17.949Z,39.60
2017-08-30T13:28:45.557Z,40.70
2017-08-30T13:31:13.152Z,40.10
2017-08-30T13:33:40.777Z,39.10
2017-08-30T13:36:08.393Z,38.40
2017-08-30T13:38:36.040Z,39.10
2017-08-30T13:41:03.668Z,41.30
2017-08-30T13:43:31.312Z,40.50
2017-08-30T13:45:58.939Z,39.00
2017-08-30T13:48:26.933Z,40.00
2017-08-30T13:50:54.552Z,37.70
2017-08-30T13:53:22.147Z,37.00
2017-08-30T13:55:49.776Z,38.00
2017-08-30T13:58:17.393Z,37.10
2017-08-30T14:00:45.014Z,39.80
2017-08-30T14:03:12.617Z,35.00
2017-08-30T14:05:40.273Z,32.30
2017-08-30T14:08:07.882Z,36.50
2017-08-30T14:10:35.517Z,41.40
2017-08-30T14:13:03.108Z,40.70
2017-08-30T14:15:31.526Z,36.00
2017-08-30T14:17:59.137Z,36.00
2017-08-30T14:20:26.748Z,35.00
2017-08-30T14:22:54.398Z,38.60
2017-08-30T14:25:22.026Z,37.80
2017-08-30T14:27:49.644Z,36.10
2017-08-30T14:30:17.260Z,37.50
2017-08-30T14:32:45.670Z,40.00
2017-08-30T14:35:13.354Z,40.00
2017-08-30T14:37:40.992Z,38.60
2017-08-30T14:40:08.590Z,38.40
2017-08-30T14:42:36.190Z,40.90
2017-08-30T14:45:03.834Z,43.60
2017-08-30T14:47:31.456Z,39.60
2017-08-30T14:49:59.107Z,43.80
2017-08-30T14:52:26.730Z,42.60
2017-08-30T14:54:54.369Z,40.90
2017-08-30T14:57:22.025Z,41.40
2017-08-30T14:59:49.678Z,44.30
2017-08-30T15:02:17.276Z,44.80
2017-08-30T15:04:44.913Z,46.80
2017-08-30T15:07:12.521Z,43.20
2017-08-30T15:09:40.130Z,45.50
2017-08-30T15:12:07.742Z,47.10
2017-08-30T15:14:35.354Z,43.80
2017-08-30T15:17:02.976Z,44.10
2017-08-30T15:19:30.588Z,46.40
2017-08-30T15:21:58.238Z,47.20
2017-08-30T15:24:25.843Z,46.40
2017-08-30T15:26:53.473Z,46.40
2017-08-30T15:29:21.093Z,49.60
2017-08-30T15:31:48.719Z,48.70
2017-08-30T15:34:16.341Z,48.50
2017-08-30T15:36:43.971Z,46.60
2017-08-30T15:39:11.610Z,49.40
2017-08-30T15:41:39.258Z,48.50
2017-08-30T15:44:06.898Z,48.90
2017-08-30T15:46:34.524Z,49.00
2017-08-30T15:49:02.171Z,47.30
2017-08-30T15:51:29.781Z,50.50
2017-08-30T15:53:57.411Z,49.10
2017-08-30T15:56:25.016Z,48.00
2017-08-30T15:58:52.640Z,48.10
2017-08-30T16:01:20.276Z,48.00
2017-08-30T16:03:47.890Z,48.80
2017-08-30T16:06:15.511Z,49.80
2017-08-30T16:08:43.131Z,48.60
2017-08-30T16:11:10.759Z,51.50
2017-08-30T16:13:38.356Z,51.70
2017-08-30T16:16:05.983Z,51.60
2017-08-30T16:18:33.602Z,49.50
2017-08-30T16:21:01.214Z,50.30
2017-08-30T16:23:28.842Z,48.90
2017-08-30T16:25:56.443Z,53.80
2017-08-30T16:28:24.059Z,50.30
2017-08-30T16:30:51.678Z,52.00
2017-08-30T16:33:19.313Z,49.40
2017-08-30T16:35:46.925Z,48.40
2017-08-30T16:38:14.556Z,50.00
2017-08-30T16:40:42.168Z,50.30
2017-08-30T16:43:10.712Z,51.00
2017-08-30T16:45:38.321Z,50.70
2017-08-30T16:48:05.915Z,50.00
2017-08-30T16:50:33.546Z,51.60
2017-08-30T16:53:01.148Z,52.10
2017-08-30T16:55:28.791Z,51.90
2017-08-30T16:57:56.410Z,51.20
2017-08-30T17:00:24.076Z,52.10
2017-08-30T17:02:51.671Z,51.80
2017-08-30T17:05:20.092Z,53.40
2017-08-30T17:07:47.700Z,53.30
2017-08-30T17:10:15.333Z,52.80
2017-08-30T17:12:42.996Z,53.80
2017-08-30T17:15:10.609Z,53.60
2017-08-30T17:17:38.233Z,54.50
2017-08-30T17:20:05.830Z,54.40
2017-08-30T17:22:33.495Z,54.80
2017-08-30T17:25:01.105Z,55.00
2017-08-30T17:27:28.768Z,55.20
2017-08-30T17:29:56.359Z,56.50
2017-08-30T17:32:23.994Z,56.60
2017-08-30T17:34:51.591Z,56.70
2017-08-30T17:37:19.190Z,56.10
2017-08-30T17:39:46.824Z,56.40
2017-08-30T17:42:14.446Z,57.20
2017-08-30T17:44:42.084Z,57.10
2017-08-30T17:47:09.688Z,58.00
2017-08-30T17:49:37.320Z,57.80
2017-08-30T17:52:04.943Z,58.40
2017-08-30T17:54:32.584Z,58.10
2017-08-30T17:57:00.193Z,58.00
2017-08-30T17:59:27.800Z,57.90
2017-08-30T18:01:55.429Z,58.50
2017-08-30T18:04:23.026Z,58.10
2017-08-30T18:06:50.656Z,58.00
2017-08-30T18:09:18.277Z,58.30
2017-08-30T18:11:45.927Z,58.80
2017-08-30T18:14:13.546Z,60.30
2017-08-30T18:16:41.207Z,62.00
2017-08-30T18:19:08.831Z,62.60
2017-08-30T18:21:36.472Z,61.80
2017-08-30T18:24:04.079Z,62.50
2017-08-30T18:26:31.689Z,62.70
2017-08-30T18:28:59.308Z,62.60
2017-08-30T18:31:26.916Z,62.20
2017-08-30T18:33:54.559Z,62.00
2017-08-30T18:36:22.186Z,61.70
2017-08-30T18:38:49.825Z,61.20
2017-08-30T18:41:17.443Z,60.90
2017-08-30T18:43:45.104Z,60.70
2017-08-30T18:46:12.714Z,60.10
2017-08-30T18:48:40.315Z,61.40
2017-08-30T18:51:07.967Z,62.20
2017-08-30T18:53:35.564Z,63.00
2017-08-30T18:56:03.218Z,63.10
2017-08-30T18:58:30.824Z,64.00
2017-08-30T19:00:58.456Z,64.80
2017-08-30T19:03:26.064Z,64.50
2017-08-30T19:05:53.707Z,64.90
2017-08-30T19:08:21.329Z,64.50
2017-08-30T19:10:48.969Z,64.50
2017-08-30T19:13:16.582Z,63.70
2017-08-30T19:15:44.193Z,63.60
2017-08-30T19:18:11.824Z,64.40
2017-08-30T19:20:39.455Z,64.90
2017-08-30T19:23:07.066Z,65.00
2017-08-30T19:25:34.677Z,65.40
2017-08-30T19:28:02.326Z,65.50
2017-08-30T19:30:29.936Z,66.00
2017-08-30T19:32:57.574Z,66.40
2017-08-30T19:35:25.186Z,67.10
2017-08-30T19:37:52.793Z,67.10
2017-08-30T19:40:20.415Z,66.90
2017-08-30T19:42:48.032Z,67.00
2017-08-30T19:45:15.697Z,67.40
2017-08-30T19:47:43.315Z,67.10
2017-08-30T19:50:10.935Z,67.00
2017-08-30T19:52:38.568Z,67.00
2017-08-30T19:55:06.212Z,68.10
2017-08-30T19:57:33.826Z,67.20
2017-08-30T20:00:01.475Z,66.90
2017-08-30T20:02:29.071Z,67.30
2017-08-30T20:04:56.673Z,67.20
2017-08-30T20:07:24.291Z,66.90
2017-08-30T20:09:51.889Z,66.80
2017-08-30T20:12:19.543Z,67.00
2017-08-30T20:14:47.151Z,66.70
2017-08-30T20:17:14.791Z,66.90
2017-08-30T20:19:42.382Z,67.50
2017-08-30T20:22:10.031Z,68.20
2017-08-30T20:24:37.647Z,67.90
2017-08-30T20:27:05.266Z,68.80
2017-08-30T20:29:32.914Z,70.40
2017-08-30T20:32:00.520Z,70.70
2017-08-30T20:34:28.144Z,70.30
2017-08-30T20:36:55.758Z,71.30
2017-08-30T20:39:23.400Z,71.20
2017-08-30T20:41:51.017Z,72.50
2017-08-30T20:44:18.668Z,72.40
2017-08-30T20:46:46.296Z,72.50
2017-08-30T20:49:13.919Z,72.40
2017-08-30T20:51:41.563Z,73.00
2017-08-30T20:54:09.176Z,72.80
2017-08-30T20:56:36.822Z,73.30
2017-08-30T20:59:04.443Z,72.80
2017-08-30T21:01:32.081Z,72.90
2017-08-30T21:03:59.735Z,73.10
2017-08-30T21:06:27.354Z,72.50
2017-08-30T21:08:55.006Z,71.90
2017-08-30T21:11:22.636Z,71.30
2017-08-30T21:13:50.246Z,71.20
2017-08-30T21:16:17.874Z,71.10
2017-08-30T21:18:45.502Z,71.20
2017-08-30T21:21:13.103Z,72.20
2017-08-30T21:23:40.736Z,71.60
2017-08-30T21:26:08.340Z,71.20
2017-08-30T21:28:35.981Z,71.10
2017-08-30T21:31:03.603Z,70.40
2017-08-30T21:33:31.219Z,70.30
2017-08-30T21:35:58.843Z,69.90
2017-08-30T21:38:26.435Z,70.30
2017-08-30T21:40:54.065Z,70.20
2017-08-30T21:43:21.663Z,69.80
2017-08-30T21:45:49.310Z,70.00
2017-08-30T21:48:16.910Z,70.60
2017-08-30T21:50:44.550Z,70.60
2017-08-30T21:53:12.141Z,70.60
2017-08-30T21:55:39.768Z,70.80
2017-08-30T21:58:07.387Z,71.20
2017-08-30T22:00:35.048Z,71.90
2017-08-30T22:03:02.643Z,71.50
2017-08-30T22:05:30.252Z,71.10
2017-08-30T22:07:57.901Z,71.10
2017-08-30T22:10:25.526Z,71.20
2017-08-30T22:12:53.161Z,71.50
2017-08-30T22:15:20.773Z,72.30
2017-08-30T22:17:48.403Z,72.30
2017-08-30T22:20:16.014Z,72.90
2017-08-30T22:22:43.668Z,72.80
2017-08-30T22:25:11.288Z,72.40
2017-08-30T22:27:39.676Z,72.60
2017-08-30T22:30:07.320Z,72.50
2017-08-30T22:32:34.923Z,72.20
2017-08-30T22:35:02.538Z,71.70
2017-08-30T22:37:30.152Z,71.20
2017-08-30T22:39:57.800Z,70.70
2017-08-30T22:42:25.410Z,70.10
2017-08-30T22:44:53.046Z,69.20
2017-08-30T22:47:20.667Z,68.40
2017-08-30T22:49:48.296Z,68.00
2017-08-30T22:52:15.906Z,67.90
2017-08-30T22:54:43.513Z,67.60
2017-08-30T22:57:11.149Z,68.40
2017-08-30T22:59:38.775Z,67.80
2017-08-30T23:02:06.424Z,67.50
2017-08-30T23:04:34.047Z,66.90
2017-08-30T23:07:01.667Z,66.80
2017-08-30T23:09:29.281Z,66.60
2017-08-30T23:11:56.927Z,66.50
2017-08-30T23:14:24.536Z,66.60
2017-08-30T23:16:52.182Z,67.00
2017-08-30T23:19:19.812Z,66.60
2017-08-30T23:21:47.431Z,66.30
2017-08-30T23:24:15.059Z,66.60
2017-08-30T23:26:42.668Z,66.80
2017-08-30T23:29:10.298Z,67.80
2017-08-30T23:31:37.927Z,67.20
2017-08-30T23:34:05.547Z,67.40
2017-08-30T23:36:33.152Z,67.50
2017-08-30T23:39:00.799Z,67.50
2017-08-30T23:41:28.423Z,67.60
2017-08-30T23:43:56.033Z,67.60
2017-08-30T23:46:23.668Z,68.00
2017-08-30T23:48:51.263Z,67.80
2017-08-30T23:51:18.908Z,67.90
2017-08-30T23:53:46.538Z,68.10
2017-08-30T23:56:14.167Z,68.00
2017-08-30T23:58:41.781Z,67.80
